createdAt,value
2023-03-01T00:00:39.795Z,-1.1
2023-03-01T00:01:46.851Z,-1.1
2023-03-01T00:02:53.970Z,-1.1
2023-03-01T00:04:01.135Z,-1.1
2023-03-01T00:05:08.263Z,-1.1
2023-03-01T00:06:15.238Z,-1.2
2023-03-01T00:07:22.196Z,-1.2
2023-03-01T00:08:28.993Z,-1.2
2023-03-01T00:09:35.955Z,-1.2
2023-03-01T00:10:43.006Z,-1.2
2023-03-01T00:11:50.011Z,-1.2
2023-03-01T00:12:57.043Z,-1.3
2023-03-01T00:14:04.075Z,-1.3
2023-03-01T00:15:14.424Z,-1.3
2023-03-01T00:16:22.920Z,-1.3
2023-03-01T00:17:32.525Z,-1.3
2023-03-01T00:18:39.571Z,-1.3
2023-03-01T00:19:46.667Z,-1.3
2023-03-01T00:20:53.714Z,-1.3
2023-03-01T00:22:00.638Z,-1.3
2023-03-01T00:23:10.995Z,-1.3
2023-03-01T00:24:18.248Z,-1.4
2023-03-01T00:25:25.219Z,-1.4
2023-03-01T00:26:32.471Z,-1.3
2023-03-01T00:27:39.147Z,-1.3
2023-03-01T00:28:46.796Z,-1.3
2023-03-01T00:29:53.748Z,-1.3
2023-03-01T00:31:00.676Z,-1.3
2023-03-01T00:32:07.678Z,-1.3
2023-03-01T00:33:14.978Z,-1.3
2023-03-01T00:34:23.706Z,-1.3
2023-03-01T00:35:31.050Z,-1.3
2023-03-01T00:36:38.245Z,-1.3
2023-03-01T00:37:45.230Z,-1.2
2023-03-01T00:38:52.140Z,-1.3
2023-03-01T00:39:59.058Z,-1.3
2023-03-01T00:41:08.109Z,-1.3
2023-03-01T00:42:18.228Z,-1.3
2023-03-01T00:43:28.187Z,-1.2
2023-03-01T00:44:35.192Z,-1.3
2023-03-01T00:45:42.648Z,-1.3
2023-03-01T00:46:49.558Z,-1.3
2023-03-01T00:47:56.529Z,-1.3
2023-03-01T00:49:03.451Z,-1.3
2023-03-01T00:50:10.349Z,-1.4
2023-03-01T00:51:17.389Z,-1.4
2023-03-01T00:52:24.248Z,-1.4
2023-03-01T00:53:31.704Z,-1.4
2023-03-01T00:54:45.501Z,-1.4
2023-03-01T00:55:53.124Z,-1.5
2023-03-01T00:57:00.100Z,-1.5
2023-03-01T00:58:09.577Z,-1.5
2023-03-01T00:59:16.495Z,-1.5
2023-03-01T01:00:23.502Z,-1.5
2023-03-01T01:01:30.668Z,-1.5
2023-03-01T01:02:37.431Z,-1.5
2023-03-01T01:03:44.400Z,-1.6
2023-03-01T01:04:53.978Z,-1.6
2023-03-01T01:06:00.906Z,-1.6
2023-03-01T01:07:08.660Z,-1.6
2023-03-01T01:08:15.702Z,-1.6
2023-03-01T01:09:22.815Z,-1.6
2023-03-01T01:10:29.751Z,-1.5
2023-03-01T01:11:36.727Z,-1.5
2023-03-01T01:12:43.904Z,-1.5
2023-03-01T01:13:50.856Z,-1.5
2023-03-01T01:14:57.968Z,-1.5
2023-03-01T01:16:05.031Z,-1.6
2023-03-01T01:17:11.915Z,-1.6
2023-03-01T01:18:19.787Z,-1.6
2023-03-01T01:19:26.912Z,-1.6
2023-03-01T01:20:33.846Z,-1.7
2023-03-01T01:21:41.442Z,-1.7
2023-03-01T01:22:49.257Z,-1.6
2023-03-01T01:23:56.233Z,-1.6
2023-03-01T01:25:07.744Z,-1.6
2023-03-01T01:26:17.315Z,-1.5
2023-03-01T01:27:24.278Z,-1.5
2023-03-01T01:28:31.204Z,-1.5
2023-03-01T01:29:38.167Z,-1.6
2023-03-01T01:30:45.132Z,-1.6
2023-03-01T01:31:53.736Z,-1.6
2023-03-01T01:33:01.262Z,-1.6
2023-03-01T01:34:08.183Z,-1.6
2023-03-01T01:35:21.278Z,-1.6
2023-03-01T01:36:28.633Z,-1.6
2023-03-01T01:37:35.238Z,-1.6
2023-03-01T01:38:44.130Z,-1.6
2023-03-01T01:39:54.815Z,-1.6
2023-03-01T01:41:08.797Z,-1.7
2023-03-01T01:42:16.737Z,-1.7
2023-03-01T01:43:21.336Z,-1.7
2023-03-01T01:44:31.174Z,-1.7
2023-03-01T01:45:38.227Z,-1.7
2023-03-01T01:46:45.246Z,-1.7
2023-03-01T01:47:58.089Z,-1.7
2023-03-01T01:49:05.198Z,-1.7
2023-03-01T01:50:12.260Z,-1.7
2023-03-01T01:51:19.178Z,-1.7
2023-03-01T01:52:29.021Z,-1.7
2023-03-01T01:53:36.265Z,-1.7
2023-03-01T01:54:43.217Z,-1.7
2023-03-01T01:55:56.601Z,-1.7
2023-03-01T01:57:04.512Z,-1.7
2023-03-01T01:58:11.480Z,-1.7
2023-03-01T01:59:18.295Z,-1.7
2023-03-01T02:00:25.948Z,-1.7
2023-03-01T02:01:33.094Z,-1.7
2023-03-01T02:02:42.532Z,-1.7
2023-03-01T02:03:50.144Z,-1.7
2023-03-01T02:04:57.003Z,-1.7
2023-03-01T02:06:14.064Z,-1.7
2023-03-01T02:07:26.817Z,-1.7
2023-03-01T02:08:36.324Z,-1.8
2023-03-01T02:09:43.296Z,-1.8
2023-03-01T02:10:52.972Z,-1.8
2023-03-01T02:12:00.485Z,-1.8
2023-03-01T02:13:07.530Z,-1.8
2023-03-01T02:14:14.484Z,-1.8
2023-03-01T02:15:26.173Z,-1.8
2023-03-01T02:16:33.645Z,-1.8
2023-03-01T02:17:40.053Z,-1.8
2023-03-01T02:18:46.957Z,-1.8
2023-03-01T02:19:54.107Z,-1.8
2023-03-01T02:21:15.764Z,-1.9
2023-03-01T02:22:30.621Z,-1.9
2023-03-01T02:23:37.541Z,-1.9
2023-03-01T02:24:44.536Z,-1.9
2023-03-01T02:25:57.561Z,-1.9
2023-03-01T02:27:12.062Z,-1.9
2023-03-01T02:28:19.034Z,-1.9
2023-03-01T02:29:31.054Z,-1.9
2023-03-01T02:30:38.000Z,-1.9
2023-03-01T02:31:47.841Z,-2
2023-03-01T02:32:54.729Z,-2
2023-03-01T02:34:04.619Z,-2
2023-03-01T02:35:17.067Z,-2
2023-03-01T02:36:23.985Z,-2
2023-03-01T02:37:31.095Z,-2
2023-03-01T02:38:40.886Z,-2
2023-03-01T02:39:47.943Z,-2
2023-03-01T02:40:55.155Z,-2
2023-03-01T02:42:05.109Z,-2
2023-03-01T02:43:12.046Z,-2
2023-03-01T02:44:19.192Z,-2
2023-03-01T02:45:26.321Z,-2
2023-03-01T02:46:33.665Z,-2
2023-03-01T02:47:40.144Z,-2
2023-03-01T02:48:47.124Z,-2
2023-03-01T02:49:54.362Z,-2
2023-03-01T02:51:01.374Z,-2
2023-03-01T02:52:13.378Z,-2
2023-03-01T02:53:30.442Z,-2.1
2023-03-01T02:54:43.117Z,-2.1
2023-03-01T02:55:55.033Z,-2.1
2023-03-01T02:57:01.947Z,-2.1
2023-03-01T02:58:08.822Z,-2.1
2023-03-01T02:59:15.826Z,-2.1
2023-03-01T03:00:22.885Z,-2.1
2023-03-01T03:01:37.324Z,-2.1
2023-03-01T03:02:44.450Z,-2.1
2023-03-01T03:03:51.488Z,-2.1
2023-03-01T03:04:58.399Z,-2.1
2023-03-01T03:06:13.499Z,-2.1
2023-03-01T03:07:23.054Z,-2.1
2023-03-01T03:08:31.008Z,-2.1
2023-03-01T03:09:37.800Z,-2.1
2023-03-01T03:10:44.833Z,-2.1
2023-03-01T03:11:51.823Z,-2.1
2023-03-01T03:12:58.815Z,-2.2
2023-03-01T03:14:08.807Z,-2.2
2023-03-01T03:15:15.744Z,-2.2
2023-03-01T03:16:22.872Z,-2.2
2023-03-01T03:17:29.712Z,-2.1
2023-03-01T03:18:36.537Z,-2.1
2023-03-01T03:19:43.456Z,-2.1
2023-03-01T03:20:50.521Z,-2.1
2023-03-01T03:21:57.502Z,-2.1
2023-03-01T03:23:04.493Z,-2.1
2023-03-01T03:24:11.434Z,-2.1
2023-03-01T03:25:18.995Z,-2.1
2023-03-01T03:26:25.837Z,-2
2023-03-01T03:27:32.754Z,-2
2023-03-01T03:28:39.753Z,-2
2023-03-01T03:29:46.701Z,-2
2023-03-01T03:30:53.605Z,-2
2023-03-01T03:32:03.149Z,-2
2023-03-01T03:33:12.738Z,-2
2023-03-01T03:34:16.913Z,-2
2023-03-01T03:35:23.937Z,-1.9
2023-03-01T03:36:33.869Z,-1.9
2023-03-01T03:37:40.935Z,-1.9
2023-03-01T03:38:52.986Z,-1.9
2023-03-01T03:40:00.124Z,-1.9
2023-03-01T03:41:07.231Z,-1.9
2023-03-01T03:42:18.016Z,-1.9
2023-03-01T03:43:24.983Z,-1.9
2023-03-01T03:44:34.198Z,-1.8
2023-03-01T03:45:41.236Z,-1.9
2023-03-01T03:46:48.108Z,-1.9
2023-03-01T03:47:55.233Z,-2
2023-03-01T03:49:02.300Z,-2
2023-03-01T03:50:09.120Z,-2
2023-03-01T03:51:19.520Z,-2
2023-03-01T03:52:26.462Z,-2.1
2023-03-01T03:53:33.427Z,-2.3
2023-03-01T03:54:40.338Z,-2.2
2023-03-01T03:55:47.396Z,-2.1
2023-03-01T03:56:54.284Z,-2.1
2023-03-01T03:58:01.297Z,-2.1
2023-03-01T03:59:08.154Z,-2.2
2023-03-01T04:00:15.468Z,-2.1
2023-03-01T04:01:26.122Z,-2.1
2023-03-01T04:02:33.218Z,-2.1
2023-03-01T04:03:40.174Z,-2.1
2023-03-01T04:05:05.536Z,-2.2
2023-03-01T04:06:12.603Z,-2.2
2023-03-01T04:07:19.669Z,-2.2
2023-03-01T04:08:26.683Z,-2.2
2023-03-01T04:09:33.582Z,-2.2
2023-03-01T04:10:44.113Z,-2.2
2023-03-01T04:11:51.057Z,-2.3
2023-03-01T04:12:58.110Z,-2.3
2023-03-01T04:14:08.685Z,-2.3
2023-03-01T04:15:16.355Z,-2.3
2023-03-01T04:16:23.417Z,-2.3
2023-03-01T04:17:30.437Z,-2.3
2023-03-01T04:18:38.025Z,-2.3
2023-03-01T04:19:45.153Z,-2.3
2023-03-01T04:20:55.149Z,-2.3
2023-03-01T04:22:02.128Z,-2.3
2023-03-01T04:23:09.083Z,-2.4
2023-03-01T04:24:18.877Z,-2.4
2023-03-01T04:25:25.861Z,-2.4
2023-03-01T04:26:33.177Z,-2.5
2023-03-01T04:27:39.830Z,-2.5
2023-03-01T04:28:46.750Z,-2.5
2023-03-01T04:29:53.602Z,-2.5
2023-03-01T04:31:00.698Z,-2.5
2023-03-01T04:32:07.775Z,-2.5
2023-03-01T04:33:15.066Z,-2.5
2023-03-01T04:34:22.053Z,-2.5
2023-03-01T04:35:29.326Z,-2.5
2023-03-01T04:36:36.632Z,-2.5
2023-03-01T04:37:46.411Z,-2.5
2023-03-01T04:38:53.440Z,-2.5
2023-03-01T04:40:00.339Z,-2.5
2023-03-01T04:41:07.453Z,-2.5
2023-03-01T04:42:17.717Z,-2.5
2023-03-01T04:43:24.794Z,-2.5
2023-03-01T04:44:31.746Z,-2.5
2023-03-01T04:45:38.710Z,-2.5
2023-03-01T04:46:45.757Z,-2.5
2023-03-01T04:47:52.677Z,-2.5
2023-03-01T04:48:59.589Z,-2.5
2023-03-01T04:50:06.833Z,-2.5
2023-03-01T04:51:16.944Z,-2.5
2023-03-01T04:52:23.825Z,-2.6
2023-03-01T04:53:30.821Z,-2.6
2023-03-01T04:54:38.011Z,-2.6
2023-03-01T04:55:44.985Z,-2.5
2023-03-01T04:56:51.935Z,-2.5
2023-03-01T04:58:02.668Z,-2.5
2023-03-01T04:59:09.761Z,-2.5
2023-03-01T05:00:19.367Z,-2.5
2023-03-01T05:01:27.142Z,-2.5
2023-03-01T05:02:34.118Z,-2.5
2023-03-01T05:03:43.236Z,-2.4
2023-03-01T05:04:47.877Z,-2.4
2023-03-01T05:05:54.734Z,-2.5
2023-03-01T05:07:01.670Z,-2.5
2023-03-01T05:08:08.547Z,-2.5
2023-03-01T05:09:15.557Z,-2.5
2023-03-01T05:10:22.385Z,-2.5
2023-03-01T05:11:29.327Z,-2.5
2023-03-01T05:12:39.309Z,-2.5
2023-03-01T05:13:46.196Z,-2.5
2023-03-01T05:14:53.207Z,-2.5
2023-03-01T05:16:00.369Z,-2.5
2023-03-01T05:17:07.556Z,-2.5
2023-03-01T05:18:14.474Z,-2.5
2023-03-01T05:19:21.398Z,-2.5
2023-03-01T05:20:28.370Z,-2.5
2023-03-01T05:21:35.333Z,-2.6
2023-03-01T05:22:42.468Z,-2.6
2023-03-01T05:23:49.750Z,-2.6
2023-03-01T05:24:56.684Z,-2.6
2023-03-01T05:26:03.638Z,-2.6
2023-03-01T05:27:10.513Z,-2.6
2023-03-01T05:28:17.480Z,-2.6
2023-03-01T05:29:24.452Z,-2.6
2023-03-01T05:30:31.345Z,-2.6
2023-03-01T05:31:38.253Z,-2.5
2023-03-01T05:32:45.165Z,-2.5
2023-03-01T05:33:56.909Z,-2.5
2023-03-01T05:35:05.529Z,-2.5
2023-03-01T05:36:12.610Z,-2.5
2023-03-01T05:37:19.641Z,-2.5
2023-03-01T05:38:26.566Z,-2.5
2023-03-01T05:39:33.415Z,-2.5
2023-03-01T05:40:40.290Z,-2.6
2023-03-01T05:41:47.158Z,-2.6
2023-03-01T05:42:57.844Z,-2.6
2023-03-01T05:44:04.881Z,-2.6
2023-03-01T05:45:11.870Z,-2.5
2023-03-01T05:46:18.916Z,-2.5
2023-03-01T05:47:25.793Z,-2.5
2023-03-01T05:48:32.667Z,-2.5
2023-03-01T05:49:39.920Z,-2.5
2023-03-01T05:50:46.631Z,-2.6
2023-03-01T05:51:53.546Z,-2.5
2023-03-01T05:53:00.558Z,-2.5
2023-03-01T05:54:15.834Z,-2.5
2023-03-01T05:55:22.795Z,-2.5
2023-03-01T05:56:30.323Z,-2.5
2023-03-01T05:57:40.192Z,-2.5
2023-03-01T05:58:47.346Z,-2.5
2023-03-01T05:59:54.501Z,-2.5
2023-03-01T06:01:01.434Z,-2.5
2023-03-01T06:02:08.423Z,-2.5
2023-03-01T06:03:15.390Z,-2.5
2023-03-01T06:04:22.419Z,-2.5
2023-03-01T06:05:29.327Z,-2.4
2023-03-01T06:06:36.153Z,-2.4
2023-03-01T06:07:43.017Z,-2.4
2023-03-01T06:08:50.034Z,-2.4
2023-03-01T06:09:56.987Z,-2.4
2023-03-01T06:11:03.792Z,-2.4
2023-03-01T06:12:12.490Z,-2.4
2023-03-01T06:13:17.675Z,-2.4
2023-03-01T06:14:24.849Z,-2.4
2023-03-01T06:15:32.511Z,-2.4
2023-03-01T06:16:39.441Z,-2.4
2023-03-01T06:17:46.539Z,-2.4
2023-03-01T06:18:54.387Z,-2.4
2023-03-01T06:20:04.298Z,-2.4
2023-03-01T06:21:14.842Z,-2.4
2023-03-01T06:22:24.389Z,-2.3
2023-03-01T06:23:31.850Z,-2.3
2023-03-01T06:24:39.311Z,-2.3
2023-03-01T06:25:49.002Z,-2.3
2023-03-01T06:26:56.664Z,-2.3
2023-03-01T06:28:04.001Z,-2.3
2023-03-01T06:29:13.971Z,-2.3
2023-03-01T06:30:21.533Z,-2.2
2023-03-01T06:31:29.127Z,-2.2
2023-03-01T06:32:36.590Z,-2.1
2023-03-01T06:33:46.508Z,-2.1
2023-03-01T06:34:56.339Z,-2
2023-03-01T06:36:03.499Z,-2
2023-03-01T06:37:10.643Z,-2
2023-03-01T06:38:28.035Z,-2
2023-03-01T06:39:39.060Z,-2
2023-03-01T06:40:46.371Z,-1.9
2023-03-01T06:42:00.149Z,-1.9
2023-03-01T06:43:10.298Z,-1.9
2023-03-01T06:44:20.342Z,-1.9
2023-03-01T06:45:29.904Z,-1.8
2023-03-01T06:46:46.713Z,-1.8
2023-03-01T06:47:54.950Z,-1.8
2023-03-01T06:49:08.299Z,-1.7
2023-03-01T06:50:18.947Z,-1.6
2023-03-01T06:51:26.681Z,-1.6
2023-03-01T06:52:37.734Z,-1.5
2023-03-01T06:53:45.995Z,-1.5
2023-03-01T06:54:53.757Z,-1.5
2023-03-01T06:56:01.031Z,-1.5
2023-03-01T06:57:08.207Z,-1.4
2023-03-01T06:58:15.396Z,-1.4
2023-03-01T06:59:22.535Z,-1.4
2023-03-01T07:00:38.616Z,-1.4
2023-03-01T07:01:45.680Z,-1.3
2023-03-01T07:02:52.771Z,-1.3
2023-03-01T07:03:59.761Z,-1.3
2023-03-01T07:05:07.381Z,-1.2
2023-03-01T07:06:24.036Z,-1.1
2023-03-01T07:07:31.579Z,-1.1
2023-03-01T07:08:38.712Z,-1.1
2023-03-01T07:09:46.428Z,-1.1
2023-03-01T07:10:53.898Z,-1
2023-03-01T07:12:03.832Z,-0.9
2023-03-01T07:13:11.929Z,-0.8
2023-03-01T07:14:18.918Z,-0.8
2023-03-01T07:15:26.154Z,-0.6
2023-03-01T07:16:33.931Z,-0.6
2023-03-01T07:17:44.805Z,-0.5
2023-03-01T07:19:02.077Z,-0.5
2023-03-01T07:20:09.332Z,-0.4
2023-03-01T07:21:30.270Z,-0.3
2023-03-01T07:22:37.309Z,-0.2
2023-03-01T07:23:44.390Z,-0.1
2023-03-01T07:24:53.429Z,0
2023-03-01T07:26:01.048Z,0.1
2023-03-01T07:27:08.233Z,0.2
2023-03-01T07:28:18.021Z,0.2
2023-03-01T07:29:25.258Z,0.3
2023-03-01T07:30:34.305Z,0.4
2023-03-01T07:31:52.088Z,0.4
2023-03-01T07:33:02.579Z,0.5
2023-03-01T07:34:13.399Z,0.2
2023-03-01T07:35:20.370Z,0.2
2023-03-01T07:36:27.606Z,0.3
2023-03-01T07:37:45.679Z,0.6
2023-03-01T07:38:52.844Z,0.7
2023-03-01T07:40:00.183Z,0.9
2023-03-01T07:41:09.628Z,1
2023-03-01T07:42:18.271Z,1.2
2023-03-01T07:43:26.737Z,1.4
2023-03-01T07:44:35.577Z,1.3
2023-03-01T07:45:49.369Z,1.4
2023-03-01T07:46:56.585Z,1.5
2023-03-01T07:48:03.911Z,1.3
2023-03-01T07:49:25.394Z,1.3
2023-03-01T07:50:32.952Z,1.3
2023-03-01T07:51:49.399Z,1.3
2023-03-01T07:52:57.288Z,1.4
2023-03-01T07:54:07.047Z,1.6
2023-03-01T07:55:14.475Z,1.7
2023-03-01T07:56:25.898Z,1.8
2023-03-01T07:57:42.643Z,1.9
2023-03-01T07:58:59.454Z,2
2023-03-01T08:00:10.272Z,1.9
2023-03-01T08:01:17.611Z,1.6
2023-03-01T08:02:25.888Z,1.6
2023-03-01T08:03:37.587Z,1.8
2023-03-01T08:04:44.689Z,1.7
2023-03-01T08:05:57.080Z,1.8
2023-03-01T08:07:04.215Z,2
2023-03-01T08:08:14.401Z,2.2
2023-03-01T08:09:24.988Z,2.3
2023-03-01T08:10:31.842Z,2.4
2023-03-01T08:11:39.598Z,2.4
2023-03-01T08:12:49.266Z,2
2023-03-01T08:13:58.797Z,1.9
2023-03-01T08:15:08.446Z,1.9
2023-03-01T08:16:15.507Z,1.8
2023-03-01T08:17:22.995Z,1.8
2023-03-01T08:18:30.401Z,1.8
2023-03-01T08:19:40.191Z,1.9
2023-03-01T08:20:47.249Z,1.8
2023-03-01T08:21:54.992Z,1.9
2023-03-01T08:23:04.635Z,2.2
2023-03-01T08:24:11.636Z,2.5
2023-03-01T08:25:18.938Z,2.8
2023-03-01T08:26:26.277Z,2.8
2023-03-01T08:27:38.100Z,3
2023-03-01T08:28:46.279Z,3
2023-03-01T08:29:56.071Z,3
2023-03-01T08:31:05.678Z,3
2023-03-01T08:32:23.191Z,2.9
2023-03-01T08:33:34.866Z,3.1
2023-03-01T08:34:42.543Z,3.2
2023-03-01T08:35:53.052Z,3.3
2023-03-01T08:37:08.390Z,3.3
2023-03-01T08:38:15.376Z,3
2023-03-01T08:39:23.207Z,3.1
2023-03-01T08:40:32.954Z,3.1
2023-03-01T08:41:41.202Z,3
2023-03-01T08:42:49.645Z,3
2023-03-01T08:43:58.489Z,3.2
2023-03-01T08:45:05.608Z,3.4
2023-03-01T08:46:13.594Z,3.3
2023-03-01T08:47:23.933Z,3.4
2023-03-01T08:48:32.010Z,3.4
2023-03-01T08:49:39.875Z,3.4
2023-03-01T08:50:48.283Z,3.4
2023-03-01T08:51:58.310Z,3.1
2023-03-01T08:53:05.744Z,3.3
2023-03-01T08:54:12.837Z,3.5
2023-03-01T08:55:19.994Z,3.6
2023-03-01T08:56:32.093Z,3.6
2023-03-01T08:57:41.536Z,3.6
2023-03-01T08:58:49.255Z,3.7
2023-03-01T08:59:56.318Z,3.7
2023-03-01T09:01:06.193Z,3.6
2023-03-01T09:02:13.610Z,3.4
2023-03-01T09:03:21.278Z,3.5
2023-03-01T09:04:33.555Z,3.5
2023-03-01T09:05:41.921Z,3.5
2023-03-01T09:06:51.861Z,3.7
2023-03-01T09:08:01.366Z,3.7
2023-03-01T09:09:09.307Z,3.6
2023-03-01T09:10:22.788Z,3.6
2023-03-01T09:11:29.836Z,3.6
2023-03-01T09:12:39.091Z,3.7
2023-03-01T09:13:46.151Z,3.7
2023-03-01T09:14:59.800Z,3.4
2023-03-01T09:16:08.216Z,3.3
2023-03-01T09:17:15.409Z,3.5
2023-03-01T09:18:25.553Z,3.4
2023-03-01T09:19:36.581Z,3.5
2023-03-01T09:20:43.573Z,3.4
2023-03-01T09:21:59.712Z,3.5
2023-03-01T09:23:06.786Z,3.4
2023-03-01T09:24:27.462Z,3.4
2023-03-01T09:25:45.518Z,3.4
2023-03-01T09:26:54.077Z,3.2
2023-03-01T09:28:04.286Z,3.3
2023-03-01T09:29:12.145Z,3.4
2023-03-01T09:30:19.848Z,3.3
2023-03-01T09:31:30.410Z,3.3
2023-03-01T09:32:38.873Z,3.3
2023-03-01T09:33:55.991Z,3.3
2023-03-01T09:35:06.063Z,3.4
2023-03-01T09:36:14.573Z,3.7
2023-03-01T09:37:21.599Z,3.7
2023-03-01T09:38:33.138Z,3.8
2023-03-01T09:39:42.210Z,3.8
2023-03-01T09:41:00.254Z,3.7
2023-03-01T09:42:10.813Z,3.8
2023-03-01T09:43:21.958Z,3.6
2023-03-01T09:44:41.833Z,3.6
2023-03-01T09:45:57.546Z,3.8
2023-03-01T09:47:07.916Z,3.9
2023-03-01T09:48:20.337Z,3.7
2023-03-01T09:49:28.692Z,3.7
2023-03-01T09:50:36.497Z,3.9
2023-03-01T09:51:44.352Z,4
2023-03-01T09:53:01.867Z,3.7
2023-03-01T09:54:11.919Z,3.8
2023-03-01T09:55:19.057Z,3.8
2023-03-01T09:56:34.630Z,4.2
2023-03-01T09:57:45.242Z,4.4
2023-03-01T09:58:52.448Z,4.5
2023-03-01T10:00:10.927Z,4.4
2023-03-01T10:01:26.652Z,4.4
2023-03-01T10:02:41.475Z,4.1
2023-03-01T10:03:48.508Z,4.4
2023-03-01T10:05:10.155Z,4.5
2023-03-01T10:06:33.853Z,4.7
2023-03-01T10:07:30.596Z,4.6
2023-03-01T10:08:49.240Z,4.4
2023-03-01T10:10:03.915Z,4.4
2023-03-01T10:11:11.256Z,4.5
2023-03-01T10:12:24.479Z,4.7
2023-03-01T10:13:34.338Z,4.3
2023-03-01T10:14:46.448Z,4.7
2023-03-01T10:16:01.183Z,4.6
2023-03-01T10:17:20.420Z,4.8
2023-03-01T10:18:32.707Z,5
2023-03-01T10:19:40.095Z,5
2023-03-01T10:20:47.443Z,5.2
2023-03-01T10:22:02.419Z,5.3
2023-03-01T10:23:18.847Z,5.5
2023-03-01T10:24:28.947Z,5.4
2023-03-01T10:25:36.325Z,5.5
2023-03-01T10:26:55.041Z,5.3
2023-03-01T10:28:05.076Z,5.1
2023-03-01T10:29:22.361Z,5.2
2023-03-01T10:30:35.335Z,5.1
2023-03-01T10:31:42.458Z,5.5
2023-03-01T10:32:49.603Z,5.3
2023-03-01T10:33:56.786Z,5
2023-03-01T10:35:07.174Z,5.2
2023-03-01T10:36:19.337Z,5.1
2023-03-01T10:37:27.078Z,5.1
2023-03-01T10:38:34.137Z,5.1
2023-03-01T10:39:54.278Z,5.2
2023-03-01T10:41:04.800Z,5.1
2023-03-01T10:42:12.201Z,5.3
2023-03-01T10:43:24.248Z,5.5
2023-03-01T10:44:31.338Z,5.3
2023-03-01T10:45:38.394Z,5.4
2023-03-01T10:46:47.659Z,5.6
2023-03-01T10:47:58.138Z,5.7
2023-03-01T10:49:11.814Z,5.2
2023-03-01T10:50:24.722Z,5.4
2023-03-01T10:51:32.703Z,5.5
2023-03-01T10:52:39.525Z,5.4
2023-03-01T10:53:46.532Z,5.4
2023-03-01T10:54:53.585Z,5.8
2023-03-01T10:56:00.639Z,5.5
2023-03-01T10:57:17.140Z,5.3
2023-03-01T10:58:29.325Z,5.4
2023-03-01T10:59:39.226Z,5.7
2023-03-01T11:00:48.848Z,5.8
2023-03-01T11:02:03.536Z,6
2023-03-01T11:03:15.692Z,6.1
2023-03-01T11:04:30.039Z,5.9
2023-03-01T11:05:36.950Z,5.6
2023-03-01T11:06:54.305Z,5.9
2023-03-01T11:08:05.572Z,5.9
2023-03-01T11:09:13.838Z,6
2023-03-01T11:10:26.482Z,6
2023-03-01T11:11:33.747Z,6.2
2023-03-01T11:12:40.850Z,6.4
2023-03-01T11:13:48.266Z,6.4
2023-03-01T11:15:03.523Z,6.4
2023-03-01T11:16:11.161Z,6
2023-03-01T11:17:18.106Z,5.6
2023-03-01T11:18:46.720Z,5.9
2023-03-01T11:19:45.172Z,6.1
2023-03-01T11:20:52.387Z,5.8
2023-03-01T11:22:00.238Z,5.5
2023-03-01T11:23:09.996Z,5.6
2023-03-01T11:24:19.134Z,5.7
2023-03-01T11:25:28.968Z,6
2023-03-01T11:26:38.851Z,6.3
2023-03-01T11:27:46.076Z,6.5
2023-03-01T11:28:53.815Z,6.7
2023-03-01T11:30:00.820Z,6.8
2023-03-01T11:31:13.515Z,6.9
2023-03-01T11:32:21.027Z,6.9
2023-03-01T11:33:28.104Z,6.5
2023-03-01T11:34:37.917Z,6.7
2023-03-01T11:35:48.085Z,6.3
2023-03-01T11:36:58.316Z,6.5
2023-03-01T11:38:05.632Z,6.7
2023-03-01T11:39:22.769Z,6.7
2023-03-01T11:40:34.834Z,6.8
2023-03-01T11:41:44.928Z,6.5
2023-03-01T11:42:52.004Z,6.4
2023-03-01T11:44:04.540Z,6.5
2023-03-01T11:45:21.719Z,5.8
2023-03-01T11:46:29.373Z,6
2023-03-01T11:47:36.474Z,6.4
2023-03-01T11:48:52.115Z,6.6
2023-03-01T11:50:04.339Z,6.1
2023-03-01T11:51:12.415Z,6.3
2023-03-01T11:52:24.458Z,6.4
2023-03-01T11:53:44.570Z,6.6
2023-03-01T11:55:01.776Z,7.1
2023-03-01T11:56:14.799Z,7
2023-03-01T11:57:34.102Z,7.2
2023-03-01T11:58:42.651Z,7.1
2023-03-01T11:59:54.700Z,7.1
2023-03-01T12:01:04.214Z,7
2023-03-01T12:02:19.320Z,6.9
2023-03-01T12:03:34.248Z,6.4
2023-03-01T12:04:48.868Z,6.3
2023-03-01T12:06:01.279Z,6.7
2023-03-01T12:07:16.559Z,6.8
2023-03-01T12:08:31.226Z,6.9
2023-03-01T12:09:43.887Z,6.8
2023-03-01T12:10:56.121Z,7.1
2023-03-01T12:12:10.921Z,7.1
2023-03-01T12:13:20.834Z,7.2
2023-03-01T12:14:27.937Z,6.9
2023-03-01T12:15:46.785Z,6.7
2023-03-01T12:16:54.320Z,6.9
2023-03-01T12:18:09.425Z,7.1
2023-03-01T12:19:21.482Z,7.1
2023-03-01T12:20:41.384Z,7.2
2023-03-01T12:21:54.823Z,7.3
2023-03-01T12:23:20.297Z,6.9
2023-03-01T12:24:32.176Z,6.6
2023-03-01T12:25:39.456Z,6.6
2023-03-01T12:26:59.533Z,6.9
2023-03-01T12:28:11.609Z,6.8
2023-03-01T12:29:18.537Z,6.7
2023-03-01T12:30:28.320Z,6.3
2023-03-01T12:31:45.640Z,6.6
2023-03-01T12:33:02.266Z,6.7
2023-03-01T12:34:19.399Z,6.9
2023-03-01T12:35:35.279Z,7.1
2023-03-01T12:36:50.222Z,7.2
2023-03-01T12:38:05.235Z,7.3
2023-03-01T12:39:15.411Z,7.1
2023-03-01T12:40:32.860Z,7
2023-03-01T12:41:45.453Z,7.1
2023-03-01T12:43:00.460Z,7.2
2023-03-01T12:44:17.769Z,6.9
2023-03-01T12:45:32.709Z,6.7
2023-03-01T12:46:45.621Z,6.6
2023-03-01T12:47:55.805Z,6.7
2023-03-01T12:49:03.466Z,6.6
2023-03-01T12:50:19.926Z,7
2023-03-01T12:51:32.349Z,6.9
2023-03-01T12:52:39.335Z,7.2
2023-03-01T12:53:54.517Z,6.8
2023-03-01T12:55:01.678Z,6.7
2023-03-01T12:56:08.926Z,6.8
2023-03-01T12:57:18.455Z,6.7
2023-03-01T12:58:26.267Z,6.3
2023-03-01T12:59:40.896Z,6.4
2023-03-01T13:01:00.400Z,6.7
2023-03-01T13:02:15.734Z,6.8
2023-03-01T13:03:30.317Z,6.8
2023-03-01T13:04:42.503Z,6.7
2023-03-01T13:05:54.590Z,6.9
2023-03-01T13:07:11.765Z,6.9
2023-03-01T13:08:23.748Z,6.9
2023-03-01T13:09:39.058Z,7.1
2023-03-01T13:10:52.040Z,7
2023-03-01T13:12:15.851Z,6.5
2023-03-01T13:13:24.178Z,6.6
2023-03-01T13:14:32.055Z,6.4
2023-03-01T13:15:41.026Z,6.7
2023-03-01T13:16:48.970Z,6.6
2023-03-01T13:17:55.950Z,6.3
2023-03-01T13:19:08.856Z,6.2
2023-03-01T13:20:21.168Z,6.3
2023-03-01T13:21:32.109Z,6.4
2023-03-01T13:22:54.216Z,6.3
2023-03-01T13:23:54.373Z,6.6
2023-03-01T13:25:01.326Z,6.7
2023-03-01T13:26:18.412Z,6.5
2023-03-01T13:27:26.119Z,6.6
2023-03-01T13:28:33.323Z,6.8
2023-03-01T13:29:43.437Z,6.9
2023-03-01T13:30:50.558Z,6.8
2023-03-01T13:32:00.518Z,6.5
2023-03-01T13:33:09.865Z,6.4
2023-03-01T13:34:28.619Z,6.5
2023-03-01T13:35:43.641Z,6.6
2023-03-01T13:36:50.623Z,6.5
2023-03-01T13:37:57.519Z,6.5
2023-03-01T13:39:06.455Z,6.5
2023-03-01T13:40:18.464Z,6.3
2023-03-01T13:41:25.381Z,6.5
2023-03-01T13:42:42.524Z,6.6
2023-03-01T13:43:55.542Z,6.7
2023-03-01T13:45:03.290Z,6.9
2023-03-01T13:46:10.942Z,6.8
2023-03-01T13:47:23.743Z,6.6
2023-03-01T13:48:30.644Z,6.6
2023-03-01T13:49:46.130Z,6.5
2023-03-01T13:50:50.658Z,6.6
2023-03-01T13:52:02.864Z,6.3
2023-03-01T13:53:09.864Z,6.4
2023-03-01T13:54:18.923Z,6.6
2023-03-01T13:55:33.842Z,6.5
2023-03-01T13:56:41.051Z,6.5
2023-03-01T13:57:49.899Z,6.6
2023-03-01T13:59:02.344Z,6.7
2023-03-01T14:00:15.426Z,6.8
2023-03-01T14:01:36.374Z,6.6
2023-03-01T14:02:43.147Z,6.7
2023-03-01T14:03:50.310Z,6.9
2023-03-01T14:04:59.779Z,6.7
2023-03-01T14:06:14.441Z,6.6
2023-03-01T14:07:17.913Z,6.7
2023-03-01T14:08:25.374Z,6.8
2023-03-01T14:09:34.209Z,6.7
2023-03-01T14:10:43.909Z,6.6
2023-03-01T14:12:02.889Z,6.6
2023-03-01T14:13:17.961Z,6.8
2023-03-01T14:14:33.126Z,6.4
2023-03-01T14:15:48.735Z,6.5
2023-03-01T14:17:05.544Z,6.7
2023-03-01T14:18:22.883Z,6.8
2023-03-01T14:19:34.036Z,6.8
2023-03-01T14:20:39.874Z,6.7
2023-03-01T14:21:46.950Z,6.6
2023-03-01T14:22:54.683Z,6.6
2023-03-01T14:24:02.502Z,6.6
2023-03-01T14:25:11.471Z,6.6
2023-03-01T14:26:19.871Z,6.7
2023-03-01T14:27:27.074Z,6.6
2023-03-01T14:28:39.869Z,6.7
2023-03-01T14:29:47.723Z,6.8
2023-03-01T14:31:02.706Z,6.4
2023-03-01T14:32:14.663Z,6.3
2023-03-01T14:33:21.650Z,6.3
2023-03-01T14:34:28.515Z,6.5
2023-03-01T14:35:35.858Z,6.6
2023-03-01T14:36:42.673Z,6.6
2023-03-01T14:37:49.483Z,6.7
2023-03-01T14:38:56.386Z,6.6
2023-03-01T14:40:06.787Z,6.4
2023-03-01T14:41:13.826Z,6.3
2023-03-01T14:42:23.743Z,6.4
2023-03-01T14:43:30.614Z,6.2
2023-03-01T14:44:40.585Z,6.4
2023-03-01T14:45:47.677Z,6.5
2023-03-01T14:46:55.298Z,6.4
2023-03-01T14:48:02.205Z,6.6
2023-03-01T14:49:09.128Z,6.3
2023-03-01T14:50:21.072Z,6.3
2023-03-01T14:51:30.852Z,6.5
2023-03-01T14:52:43.001Z,6.3
2023-03-01T14:53:51.382Z,6.4
2023-03-01T14:54:56.879Z,6.4
2023-03-01T14:56:05.575Z,6.3
2023-03-01T14:57:17.985Z,6.4
2023-03-01T14:58:26.910Z,6.3
2023-03-01T14:59:34.137Z,6.3
2023-03-01T15:00:44.458Z,6.3
2023-03-01T15:01:51.500Z,6.3
2023-03-01T15:02:58.409Z,6.3
2023-03-01T15:04:05.310Z,6.3
2023-03-01T15:05:12.629Z,6.4
2023-03-01T15:06:21.552Z,6.3
2023-03-01T15:07:30.033Z,6.2
2023-03-01T15:08:47.604Z,6.3
2023-03-01T15:09:57.615Z,6.4
2023-03-01T15:11:04.946Z,6.3
2023-03-01T15:12:21.675Z,6.3
2023-03-01T15:13:31.411Z,6.2
2023-03-01T15:14:40.390Z,6.2
2023-03-01T15:15:47.526Z,6.2
2023-03-01T15:16:54.313Z,6.3
2023-03-01T15:18:02.729Z,6.4
2023-03-01T15:19:09.237Z,6.2
2023-03-01T15:20:18.222Z,6.2
2023-03-01T15:21:25.394Z,6.2
2023-03-01T15:22:35.642Z,6.3
2023-03-01T15:23:43.658Z,6.3
2023-03-01T15:24:53.569Z,6.3
2023-03-01T15:26:03.517Z,6.2
2023-03-01T15:27:10.609Z,6.1
2023-03-01T15:28:17.667Z,6
2023-03-01T15:29:33.458Z,6
2023-03-01T15:30:42.241Z,6.1
2023-03-01T15:31:49.225Z,6.3
2023-03-01T15:33:07.155Z,6.2
2023-03-01T15:34:25.861Z,6.2
2023-03-01T15:35:39.162Z,6.2
2023-03-01T15:36:47.106Z,6.1
2023-03-01T15:37:55.365Z,5.9
2023-03-01T15:39:02.648Z,6
2023-03-01T15:40:10.114Z,5.9
2023-03-01T15:41:29.274Z,5.9
2023-03-01T15:42:36.701Z,6
2023-03-01T15:43:46.513Z,6.1
2023-03-01T15:44:53.761Z,6.1
2023-03-01T15:46:14.398Z,6.1
2023-03-01T15:47:24.511Z,6.1